sensor_id;sensor_type;location;lat;lon;timestamp;temperature;humidity
23495;DHT22;26107;50.832;2.950;2022-12-05T00:01:43;3.40;99.90
23495;DHT22;26107;50.832;2.950;2022-12-05T00:16:44;3.50;99.90
23495;DHT22;26107;50.832;2.950;2022-12-05T00:31:44;3.50;99.90
23495;DHT22;26107;50.832;2.950;2022-12-05T00:46:47;3.60;99.90
23495;DHT22;26107;50.832;2.950;2022-12-05T01:01:48;3.50;99.90
23495;DHT22;26107;50.832;2.950;2022-12-05T01:16:49;3.60;99.90
23495;DHT22;26107;50.832;2.950;2022-12-05T01:31:50;3.70;99.90
23495;DHT22;26107;50.832;2.950;2022-12-05T01:46:51;3.70;99.90
23495;DHT22;26107;50.832;2.950;2022-12-05T02:01:52;3.80;99.90
23495;DHT22;26107;50.832;2.950;2022-12-05T02:17:03;3.80;99.90
23495;DHT22;26107;50.832;2.950;2022-12-05T02:32:09;3.90;99.90
23495;DHT22;26107;50.832;2.950;2022-12-05T02:47:10;3.90;99.90
23495;DHT22;26107;50.832;2.950;2022-12-05T03:02:22;3.90;99.90
23495;DHT22;26107;50.832;2.950;2022-12-05T03:17:24;4.00;99.90
23495;DHT22;26107;50.832;2.950;2022-12-05T03:47:30;3.70;99.90
23495;DHT22;26107;50.832;2.950;2022-12-05T04:32:50;4.10;99.90
23495;DHT22;26107;50.832;2.950;2022-12-05T04:47:53;4.00;99.90
23495;DHT22;26107;50.832;2.950;2022-12-05T05:03:06;4.20;99.90
23495;DHT22;26107;50.832;2.950;2022-12-05T05:18:08;3.90;99.90
23495;DHT22;26107;50.832;2.950;2022-12-05T05:33:09;3.90;99.90
23495;DHT22;26107;50.832;2.950;2022-12-05T05:48:09;3.80;99.90
23495;DHT22;26107;50.832;2.950;2022-12-05T06:03:10;3.70;99.90
23495;DHT22;26107;50.832;2.950;2022-12-05T06:18:10;3.90;99.90
23495;DHT22;26107;50.832;2.950;2022-12-05T06:33:11;3.90;99.90
23495;DHT22;26107;50.832;2.950;2022-12-05T06:48:11;3.80;99.90
23495;DHT22;26107;50.832;2.950;2022-12-05T07:03:12;3.80;99.90
23495;DHT22;26107;50.832;2.950;2022-12-05T07:18:13;3.90;99.90
23495;DHT22;26107;50.832;2.950;2022-12-05T07:38:36;4.10;99.90
23495;DHT22;26107;50.832;2.950;2022-12-05T07:53:37;4.10;99.90
23495;DHT22;26107;50.832;2.950;2022-12-05T08:08:38;4.20;99.90
23495;DHT22;26107;50.832;2.950;2022-12-05T08:23:39;4.50;99.90
23495;DHT22;26107;50.832;2.950;2022-12-05T08:38:41;4.60;99.90
23495;DHT22;26107;50.832;2.950;2022-12-05T08:53:42;4.80;99.90
23495;DHT22;26107;50.832;2.950;2022-12-05T09:08:43;4.90;99.90
23495;DHT22;26107;50.832;2.950;2022-12-05T09:23:44;4.90;99.90
23495;DHT22;26107;50.832;2.950;2022-12-05T09:38:46;5.00;99.90
23495;DHT22;26107;50.832;2.950;2022-12-05T09:53:46;4.90;99.90
23495;DHT22;26107;50.832;2.950;2022-12-05T10:09:04;5.00;99.90
23495;DHT22;26107;50.832;2.950;2022-12-05T10:24:17;4.90;99.90
23495;DHT22;26107;50.832;2.950;2022-12-05T10:39:23;5.10;99.90
23495;DHT22;26107;50.832;2.950;2022-12-05T10:54:27;5.20;99.90
23495;DHT22;26107;50.832;2.950;2022-12-05T11:09:35;5.20;99.90
23495;DHT22;26107;50.832;2.950;2022-12-05T11:24:37;5.20;99.90
23495;DHT22;26107;50.832;2.950;2022-12-05T11:39:38;5.40;99.90
23495;DHT22;26107;50.832;2.950;2022-12-05T11:54:53;5.40;99.90
23495;DHT22;26107;50.832;2.950;2022-12-05T12:40:48;5.50;99.90
23495;DHT22;26107;50.832;2.950;2022-12-05T13:11:03;5.40;99.90
23495;DHT22;26107;50.832;2.950;2022-12-05T13:26:10;5.40;99.90
23495;DHT22;26107;50.832;2.950;2022-12-05T13:41:11;5.60;99.90
23495;DHT22;26107;50.832;2.950;2022-12-05T13:56:52;5.60;99.90
23495;DHT22;26107;50.832;2.950;2022-12-05T14:57:35;5.90;99.90
23495;DHT22;26107;50.832;2.950;2022-12-05T15:12:56;6.00;99.90
23495;DHT22;26107;50.832;2.950;2022-12-05T15:27:59;5.90;99.90
23495;DHT22;26107;50.832;2.950;2022-12-05T15:43:00;6.00;99.90
23495;DHT22;26107;50.832;2.950;2022-12-05T15:58:02;6.10;99.90
23495;DHT22;26107;50.832;2.950;2022-12-05T16:13:10;5.90;99.90
23495;DHT22;26107;50.832;2.950;2022-12-05T16:28:18;6.10;99.90
23495;DHT22;26107;50.832;2.950;2022-12-05T16:58:29;5.90;99.90
23495;DHT22;26107;50.832;2.950;2022-12-05T17:13:30;5.80;99.90
23495;DHT22;26107;50.832;2.950;2022-12-05T17:28:31;6.00;99.90
23495;DHT22;26107;50.832;2.950;2022-12-05T17:43:32;6.10;99.90
23495;DHT22;26107;50.832;2.950;2022-12-05T17:58:33;6.20;99.90
23495;DHT22;26107;50.832;2.950;2022-12-05T18:13:33;6.40;99.90
23495;DHT22;26107;50.832;2.950;2022-12-05T18:28:35;6.40;99.90
23495;DHT22;26107;50.832;2.950;2022-12-05T18:43:36;6.40;99.90
23495;DHT22;26107;50.832;2.950;2022-12-05T18:58:37;6.40;99.90
23495;DHT22;26107;50.832;2.950;2022-12-05T19:13:37;6.30;99.90
23495;DHT22;26107;50.832;2.950;2022-12-05T19:28:38;6.10;99.90
23495;DHT22;26107;50.832;2.950;2022-12-05T19:43:39;5.50;99.90
23495;DHT22;26107;50.832;2.950;2022-12-05T19:58:41;5.70;99.90
23495;DHT22;26107;50.832;2.950;2022-12-05T20:13:42;5.80;99.90
23495;DHT22;26107;50.832;2.950;2022-12-05T20:28:43;5.90;99.90
23495;DHT22;26107;50.832;2.950;2022-12-05T20:43:46;5.90;99.90
23495;DHT22;26107;50.832;2.950;2022-12-05T20:58:48;5.90;99.90
23495;DHT22;26107;50.832;2.950;2022-12-05T21:13:50;6.00;99.90
23495;DHT22;26107;50.832;2.950;2022-12-05T21:28:51;5.70;99.90
23495;DHT22;26107;50.832;2.950;2022-12-05T21:43:51;5.90;99.90
23495;DHT22;26107;50.832;2.950;2022-12-05T21:58:53;6.00;99.90
23495;DHT22;26107;50.832;2.950;2022-12-05T22:13:53;6.10;99.90
23495;DHT22;26107;50.832;2.950;2022-12-05T22:28:55;6.10;99.90
23495;DHT22;26107;50.832;2.950;2022-12-05T22:43:58;6.10;99.90
23495;DHT22;26107;50.832;2.950;2022-12-05T22:58:59;6.30;99.90
23495;DHT22;26107;50.832;2.950;2022-12-05T23:14:00;6.20;99.90
23495;DHT22;26107;50.832;2.950;2022-12-05T23:29:01;6.20;99.90
23495;DHT22;26107;50.832;2.950;2022-12-05T23:44:02;6.30;99.90
23495;DHT22;26107;50.832;2.950;2022-12-05T23:59:05;6.30;99.90
